Terminal Aerodrome Forecast
Issued by NWS

Current Version | Previous Version | Graphics & Text | Print | Product List | Glossary On
Versions: 1 2 3 4 5 6 7 8 9 10 11 12 13 14 15 16 17 18 19 20 21 22 23 24 25 26 27 28 29 30 31 32 33
720
FTUS41 KPBZ 212328
TAFHLG
TAF
KHLG 212328Z 2200/2224 21010G16KT P6SM BKN020
     FM220200 VRB03KT P6SM SCT200
     FM220400 00000KT 5SM BR SCT250
     FM220700 00000KT 1SM BR BKN008
     FM221400 20005KT P6SM -SHRA VCTS OVC040CB=

USA.gov is the U.S. government's official web portal to all federal, state and local government web resources and services.